Decoded Metar for YBTL (TOWNSVILLE in AUSTRALIA) (IATA:TSV) | Meteo·Mobile Aviation Weather
aviador You're here:

YBTL Decoded Metar

TOWNSVILLE in AUSTRALIA
Report Time2018-11-19 02:00:00
UTC Time2018-11-19 02:38:05
Flight Rules vfr VFR
Wind060° at 12 kt
W.Decomp.*RWY 07: 11.4 kt HW 3.7 kt LCW
RWY 01: 8.9 kt HW 8.0 kt RCW
W.Rank060° ranks 1
Current wind is above 060° avg. (11.9)
Visibility9999 m
Phenomena:N/A
Clouds:Few 040 Hf
Expected CloudBase > 4,000 ft AGL from Temp-Dew spread
CeilingNone
Temp30°C (ISA +15)
Dew Point20°C (55% RH)
Heat Index31.9°C
AAT29.4°C
QNH1013 hPa
Density Alt2,054 ft
Elevation20 ft
Report Wrong Elevation
Raw Report
METAR YBTL 190200Z 06012KT 9999 FEW040 30/20 Q1013
NOSIG=

Extra information for YBTL:More info

Metar Taf Metar & Taf Last 4 Metars F.Rules Stats Wind Profile Meteogram Temp Stats Airport Information Weather charts Add Link Nearby VenuesMetar ALERT Operation Metar Decoded Social comments